sensor_id;sensor_type;location;lat;lon;timestamp;pressure;altitude;pressure_sealevel;temperature;humidity
34124;BME280;13153;52.316;21.166;2024-03-23T00:54:35;99549.75;;;13.95;65.79
34124;BME280;13153;52.316;21.166;2024-03-23T00:57:02;99547.13;;;13.88;66.20
34124;BME280;13153;52.316;21.166;2024-03-23T00:59:29;99542.75;;;13.86;66.42
34124;BME280;13153;52.316;21.166;2024-03-23T01:01:57;99536.56;;;13.79;66.46
34124;BME280;13153;52.316;21.166;2024-03-23T01:04:23;99525.13;;;13.82;66.45
34124;BME280;13153;52.316;21.166;2024-03-23T01:06:50;99529.53;;;13.86;66.35
34124;BME280;13153;52.316;21.166;2024-03-23T01:09:16;99533.94;;;13.85;66.47
34124;BME280;13153;52.316;21.166;2024-03-23T01:11:42;99523.31;;;13.88;66.48
34124;BME280;13153;52.316;21.166;2024-03-23T01:14:09;99516.25;;;13.87;66.41
34124;BME280;13153;52.316;21.166;2024-03-23T01:16:35;99528.63;;;13.82;66.52
34124;BME280;13153;52.316;21.166;2024-03-23T01:19:02;99521.59;;;13.80;66.68
34124;BME280;13153;52.316;21.166;2024-03-23T01:21:29;99523.34;;;13.82;66.76
34124;BME280;13153;52.316;21.166;2024-03-23T01:23:56;99525.13;;;13.83;66.74
34124;BME280;13153;52.316;21.166;2024-03-23T01:26:22;99513.66;;;13.84;66.67
34124;BME280;13153;52.316;21.166;2024-03-23T01:28:48;99503.97;;;13.80;66.63
34124;BME280;13153;52.316;21.166;2024-03-23T01:31:14;99507.47;;;13.79;66.68
34124;BME280;13153;52.316;21.166;2024-03-23T01:33:42;99507.47;;;13.79;66.82
34124;BME280;13153;52.316;21.166;2024-03-23T01:36:08;99506.59;;;13.80;66.55
34124;BME280;13153;52.316;21.166;2024-03-23T01:38:34;99506.59;;;13.82;66.90
34124;BME280;13153;52.316;21.166;2024-03-23T01:41:00;99513.66;;;13.81;66.80
34124;BME280;13153;52.316;21.166;2024-03-23T01:43:26;99517.19;;;13.79;67.14
34124;BME280;13153;52.316;21.166;2024-03-23T01:45:53;99515.41;;;13.79;67.18
34124;BME280;13153;52.316;21.166;2024-03-23T01:48:20;99503.97;;;13.82;66.90
34124;BME280;13153;52.316;21.166;2024-03-23T01:50:46;99506.59;;;13.83;67.18
34124;BME280;13153;52.316;21.166;2024-03-23T01:53:15;99503.97;;;13.79;67.07
34124;BME280;13153;52.316;21.166;2024-03-23T01:55:43;99496.03;;;13.80;67.20
34124;BME280;13153;52.316;21.166;2024-03-23T01:58:11;99487.22;;;13.84;67.30
34124;BME280;13153;52.316;21.166;2024-03-23T02:00:37;99489.84;;;13.80;67.34
34124;BME280;13153;52.316;21.166;2024-03-23T02:03:26;99493.38;;;13.74;67.71
34124;BME280;13153;52.316;21.166;2024-03-23T02:05:54;99489.88;;;13.72;68.11
34124;BME280;13153;52.316;21.166;2024-03-23T02:08:23;99496.03;;;13.73;67.97
34124;BME280;13153;52.316;21.166;2024-03-23T02:10:50;99490.75;;;13.79;67.63
34124;BME280;13153;52.316;21.166;2024-03-23T02:13:18;99485.44;;;13.80;67.99
34124;BME280;13153;52.316;21.166;2024-03-23T02:15:44;99486.34;;;13.81;67.93
34124;BME280;13153;52.316;21.166;2024-03-23T02:18:11;99484.56;;;13.75;67.75
34124;BME280;13153;52.316;21.166;2024-03-23T02:20:37;99482.81;;;13.74;67.77
34124;BME280;13153;52.316;21.166;2024-03-23T02:23:05;99490.75;;;13.77;67.96
34124;BME280;13153;52.316;21.166;2024-03-23T02:25:33;99477.53;;;13.80;68.04
34124;BME280;13153;52.316;21.166;2024-03-23T02:28:00;99478.41;;;13.81;68.24
34124;BME280;13153;52.316;21.166;2024-03-23T02:30:27;99483.69;;;13.78;68.03
34124;BME280;13153;52.316;21.166;2024-03-23T02:32:53;99473.13;;;13.79;67.83
34124;BME280;13153;52.316;21.166;2024-03-23T02:35:19;99471.34;;;13.86;67.84
34124;BME280;13153;52.316;21.166;2024-03-23T02:37:47;99474.00;;;13.86;68.03
34124;BME280;13153;52.316;21.166;2024-03-23T02:40:15;99467.81;;;13.85;67.78
34124;BME280;13153;52.316;21.166;2024-03-23T02:42:41;99465.19;;;13.82;68.23
34124;BME280;13153;52.316;21.166;2024-03-23T02:45:07;99460.78;;;13.78;68.49
34124;BME280;13153;52.316;21.166;2024-03-23T02:47:34;99454.63;;;13.76;68.31
34124;BME280;13153;52.316;21.166;2024-03-23T02:50:00;99452.84;;;13.75;68.75
34124;BME280;13153;52.316;21.166;2024-03-23T02:52:27;99459.91;;;13.76;68.57
34124;BME280;13153;52.316;21.166;2024-03-23T02:54:53;99448.44;;;13.74;69.04
34124;BME280;13153;52.316;21.166;2024-03-23T02:57:19;99456.38;;;13.74;69.05
34124;BME280;13153;52.316;21.166;2024-03-23T02:59:47;99447.56;;;13.72;68.79
34124;BME280;13153;52.316;21.166;2024-03-23T03:02:15;99454.63;;;13.67;69.11
34124;BME280;13153;52.316;21.166;2024-03-23T03:04:42;99445.81;;;13.68;69.58
34124;BME280;13153;52.316;21.166;2024-03-23T03:07:08;99447.56;;;13.68;69.43
34124;BME280;13153;52.316;21.166;2024-03-23T03:09:35;99443.16;;;13.62;69.17
34124;BME280;13153;52.316;21.166;2024-03-23T03:12:05;99440.53;;;13.64;69.91
34124;BME280;13153;52.316;21.166;2024-03-23T03:14:31;99434.34;;;13.63;69.66
34124;BME280;13153;52.316;21.166;2024-03-23T03:16:58;99436.13;;;13.64;69.98
34124;BME280;13153;52.316;21.166;2024-03-23T03:19:24;99430.81;;;13.69;69.79
34124;BME280;13153;52.316;21.166;2024-03-23T03:21:50;99431.72;;;13.72;69.73
34124;BME280;13153;52.316;21.166;2024-03-23T03:24:16;99427.31;;;13.68;69.81
34124;BME280;13153;52.316;21.166;2024-03-23T03:26:43;99431.72;;;13.68;70.01
34124;BME280;13153;52.316;21.166;2024-03-23T03:29:09;99435.22;;;13.71;70.09
34124;BME280;13153;52.316;21.166;2024-03-23T03:31:36;99443.16;;;13.67;70.11
34124;BME280;13153;52.316;21.166;2024-03-23T03:34:02;99434.34;;;13.72;70.13
34124;BME280;13153;52.316;21.166;2024-03-23T03:36:28;99434.34;;;13.75;69.62
34124;BME280;13153;52.316;21.166;2024-03-23T03:38:55;99436.13;;;13.70;70.23
34124;BME280;13153;52.316;21.166;2024-03-23T03:41:21;99436.09;;;13.75;69.89
34124;BME280;13153;52.316;21.166;2024-03-23T03:43:47;99444.91;;;13.78;69.63
34124;BME280;13153;52.316;21.166;2024-03-23T03:46:13;99443.16;;;13.82;70.10
34124;BME280;13153;52.316;21.166;2024-03-23T03:48:39;99435.22;;;13.82;70.00
34124;BME280;13153;52.316;21.166;2024-03-23T03:51:06;99437.88;;;13.82;69.90
34124;BME280;13153;52.316;21.166;2024-03-23T03:53:32;99445.78;;;13.83;69.54
34124;BME280;13153;52.316;21.166;2024-03-23T03:56:02;99437.88;;;13.80;70.08
34124;BME280;13153;52.316;21.166;2024-03-23T03:58:28;99438.75;;;13.81;69.99
34124;BME280;13153;52.316;21.166;2024-03-23T04:00:55;99443.16;;;13.79;70.14
34124;BME280;13153;52.316;21.166;2024-03-23T04:03:21;99434.34;;;13.80;70.45
34124;BME280;13153;52.316;21.166;2024-03-23T04:05:54;99430.81;;;13.81;70.52
34124;BME280;13153;52.316;21.166;2024-03-23T04:08:21;99435.16;;;13.94;69.61
34124;BME280;13153;52.316;21.166;2024-03-23T04:10:48;99422.81;;;13.93;69.44
34124;BME280;13153;52.316;21.166;2024-03-23T04:13:14;99427.22;;;13.97;69.50
34124;BME280;13153;52.316;21.166;2024-03-23T04:15:41;99425.47;;;13.95;69.45
34124;BME280;13153;52.316;21.166;2024-03-23T04:18:07;99421.94;;;13.94;69.78
34124;BME280;13153;52.316;21.166;2024-03-23T04:20:34;99421.94;;;13.93;69.62
34124;BME280;13153;52.316;21.166;2024-03-23T04:23:00;99427.22;;;13.94;69.82
34124;BME280;13153;52.316;21.166;2024-03-23T04:25:27;99413.13;;;13.97;69.72
34124;BME280;13153;52.316;21.166;2024-03-23T04:27:54;99405.19;;;13.97;69.82
34124;BME280;13153;52.316;21.166;2024-03-23T04:30:21;99404.31;;;13.93;70.10
34124;BME280;13153;52.316;21.166;2024-03-23T04:32:50;99400.78;;;13.94;69.78
34124;BME280;13153;52.316;21.166;2024-03-23T04:35:17;99401.66;;;13.99;69.59
34124;BME280;13153;52.316;21.166;2024-03-23T04:37:45;99398.13;;;13.99;69.83
34124;BME280;13153;52.316;21.166;2024-03-23T04:40:12;99399.00;;;13.99;69.85
34124;BME280;13153;52.316;21.166;2024-03-23T04:42:38;99391.06;;;13.98;69.65
34124;BME280;13153;52.316;21.166;2024-03-23T04:45:05;99388.44;;;13.95;70.15
34124;BME280;13153;52.316;21.166;2024-03-23T04:47:32;99395.50;;;13.96;70.24
34124;BME280;13153;52.316;21.166;2024-03-23T04:49:59;99390.19;;;13.97;70.29
34124;BME280;13153;52.316;21.166;2024-03-23T04:52:25;99385.78;;;13.98;70.22
34124;BME280;13153;52.316;21.166;2024-03-23T04:54:52;99384.03;;;14.00;70.48
34124;BME280;13153;52.316;21.166;2024-03-23T04:57:18;99386.66;;;14.00;70.55
34124;BME280;13153;52.316;21.166;2024-03-23T04:59:44;99385.78;;;14.01;70.38
34124;BME280;13153;52.316;21.166;2024-03-23T05:02:10;99387.53;;;14.03;70.20
34124;BME280;13153;52.316;21.166;2024-03-23T05:04:38;99382.25;;;13.99;70.56
34124;BME280;13153;52.316;21.166;2024-03-23T05:07:04;99375.19;;;14.01;70.31
34124;BME280;13153;52.316;21.166;2024-03-23T05:09:30;99370.78;;;14.04;70.15
34124;BME280;13153;52.316;21.166;2024-03-23T05:11:59;99379.59;;;14.06;70.29
34124;BME280;13153;52.316;21.166;2024-03-23T05:14:28;99369.88;;;14.05;70.03
34124;BME280;13153;52.316;21.166;2024-03-23T05:16:55;99369.00;;;14.11;70.29
34124;BME280;13153;52.316;21.166;2024-03-23T05:19:22;99366.34;;;14.14;69.76
34124;BME280;13153;52.316;21.166;2024-03-23T05:21:49;99370.72;;;14.19;70.18
34124;BME280;13153;52.316;21.166;2024-03-23T05:24:16;99379.53;;;14.20;69.96
34124;BME280;13153;52.316;21.166;2024-03-23T05:26:42;99378.66;;;14.21;69.63
34124;BME280;13153;52.316;21.166;2024-03-23T05:29:08;99374.25;;;14.21;69.58
34124;BME280;13153;52.316;21.166;2024-03-23T05:31:39;99376.88;;;14.23;69.74
34124;BME280;13153;52.316;21.166;2024-03-23T05:34:08;99375.13;;;14.24;69.56
34124;BME280;13153;52.316;21.166;2024-03-23T05:36:35;99374.25;;;14.21;69.41
34124;BME280;13153;52.316;21.166;2024-03-23T05:39:02;99366.31;;;14.21;69.87
34124;BME280;13153;52.316;21.166;2024-03-23T05:41:29;99360.13;;;14.23;69.61
34124;BME280;13153;52.316;21.166;2024-03-23T05:43:55;99358.34;;;14.25;69.91
34124;BME280;13153;52.316;21.166;2024-03-23T05:46:21;99358.34;;;14.26;69.80
34124;BME280;13153;52.316;21.166;2024-03-23T05:48:48;99362.75;;;14.26;69.62
34124;BME280;13153;52.316;21.166;2024-03-23T05:51:14;99361.84;;;14.28;69.69
34124;BME280;13153;52.316;21.166;2024-03-23T05:53:40;99366.28;;;14.23;69.79
34124;BME280;13153;52.316;21.166;2024-03-23T05:56:06;99361.00;;;14.23;70.02
34124;BME280;13153;52.316;21.166;2024-03-23T05:58:33;99355.72;;;14.23;69.71
34124;BME280;13153;52.316;21.166;2024-03-23T06:01:01;99351.28;;;14.27;69.62
34124;BME280;13153;52.316;21.166;2024-03-23T06:03:29;99351.28;;;14.28;69.83
34124;BME280;13153;52.316;21.166;2024-03-23T06:05:55;99351.28;;;14.30;69.60
34124;BME280;13153;52.316;21.166;2024-03-23T06:08:22;99336.28;;;14.30;69.71
34124;BME280;13153;52.316;21.166;2024-03-23T06:10:50;99345.09;;;14.32;69.79
34124;BME280;13153;52.316;21.166;2024-03-23T06:13:16;99348.59;;;14.34;69.84
34124;BME280;13153;52.316;21.166;2024-03-23T06:15:44;99338.91;;;14.32;69.16
34124;BME280;13153;52.316;21.166;2024-03-23T06:18:12;99345.97;;;14.31;69.46
34124;BME280;13153;52.316;21.166;2024-03-23T06:20:38;99345.97;;;14.31;69.30
34124;BME280;13153;52.316;21.166;2024-03-23T06:23:06;99353.91;;;14.34;69.68
34124;BME280;13153;52.316;21.166;2024-03-23T06:25:32;99359.19;;;14.34;69.53
34124;BME280;13153;52.316;21.166;2024-03-23T06:27:59;99354.78;;;14.32;69.61
34124;BME280;13153;52.316;21.166;2024-03-23T06:30:27;99340.69;;;14.28;69.87
34124;BME280;13153;52.316;21.166;2024-03-23T06:32:53;99344.19;;;14.32;69.59
34124;BME280;13153;52.316;21.166;2024-03-23T06:35:21;99346.84;;;14.30;70.27
34124;BME280;13153;52.316;21.166;2024-03-23T06:37:47;99340.69;;;14.28;69.94
34124;BME280;13153;52.316;21.166;2024-03-23T06:40:14;99342.47;;;14.28;69.96
34124;BME280;13153;52.316;21.166;2024-03-23T06:42:41;99341.56;;;14.32;70.10
34124;BME280;13153;52.316;21.166;2024-03-23T06:45:08;99331.84;;;14.32;69.74
34124;BME280;13153;52.316;21.166;2024-03-23T06:47:34;99338.03;;;14.33;70.33
34124;BME280;13153;52.316;21.166;2024-03-23T06:50:03;99326.56;;;14.32;69.98
34124;BME280;13153;52.316;21.166;2024-03-23T06:52:33;99330.97;;;14.30;70.13
34124;BME280;13153;52.316;21.166;2024-03-23T06:54:59;99335.41;;;14.30;70.28
34124;BME280;13153;52.316;21.166;2024-03-23T06:57:27;99324.81;;;14.28;70.46
34124;BME280;13153;52.316;21.166;2024-03-23T06:59:53;99321.28;;;14.31;70.30
34124;BME280;13153;52.316;21.166;2024-03-23T07:02:20;99319.53;;;14.25;70.23
34124;BME280;13153;52.316;21.166;2024-03-23T07:04:46;99307.22;;;14.18;70.55
34124;BME280;13153;52.316;21.166;2024-03-23T07:07:13;99304.56;;;14.24;70.65
34124;BME280;13153;52.316;21.166;2024-03-23T07:09:39;99300.13;;;14.29;70.63
34124;BME280;13153;52.316;21.166;2024-03-23T07:12:05;99299.22;;;14.33;70.40
34124;BME280;13153;52.316;21.166;2024-03-23T07:14:34;99308.00;;;14.38;70.57
34124;BME280;13153;52.316;21.166;2024-03-23T07:17:01;99306.22;;;14.40;70.51
34124;BME280;13153;52.316;21.166;2024-03-23T07:19:28;99295.66;;;14.42;70.51
34124;BME280;13153;52.316;21.166;2024-03-23T07:21:55;99304.41;;;14.47;70.09
34124;BME280;13153;52.316;21.166;2024-03-23T07:24:21;99296.50;;;14.45;69.95
34124;BME280;13153;52.316;21.166;2024-03-23T07:26:48;99300.97;;;14.34;70.47
34124;BME280;13153;52.316;21.166;2024-03-23T07:29:14;99294.81;;;14.29;70.65
34124;BME280;13153;52.316;21.166;2024-03-23T07:31:41;99300.97;;;14.34;70.35
34124;BME280;13153;52.316;21.166;2024-03-23T07:34:07;99292.13;;;14.38;70.50
34124;BME280;13153;52.316;21.166;2024-03-23T07:36:33;99292.19;;;14.29;70.11
34124;BME280;13153;52.316;21.166;2024-03-23T07:39:00;99296.63;;;14.24;70.58
34124;BME280;13153;52.316;21.166;2024-03-23T07:41:26;99285.13;;;14.31;70.08
34124;BME280;13153;52.316;21.166;2024-03-23T07:43:54;99285.22;;;14.14;70.57
34124;BME280;13153;52.316;21.166;2024-03-23T07:46:21;99294.00;;;14.21;70.65
34124;BME280;13153;52.316;21.166;2024-03-23T07:48:47;99286.88;;;14.32;70.21
34124;BME280;13153;52.316;21.166;2024-03-23T07:51:22;99282.50;;;14.25;70.45
34124;BME280;13153;52.316;21.166;2024-03-23T07:53:48;99276.31;;;14.29;70.63
34124;BME280;13153;52.316;21.166;2024-03-23T07:56:16;99272.78;;;14.30;70.43
34124;BME280;13153;52.316;21.166;2024-03-23T07:58:43;99276.34;;;14.20;70.90
34124;BME280;13153;52.316;21.166;2024-03-23T08:01:15;99262.31;;;14.07;71.29
34124;BME280;13153;52.316;21.166;2024-03-23T08:03:44;99264.94;;;14.13;71.38
34124;BME280;13153;52.316;21.166;2024-03-23T08:06:16;99263.13;;;14.18;71.26
34124;BME280;13153;52.316;21.166;2024-03-23T08:08:47;99256.97;;;14.16;71.29
34124;BME280;13153;52.316;21.166;2024-03-23T08:11:13;99253.44;;;14.19;71.42
34124;BME280;13153;52.316;21.166;2024-03-23T08:13:41;99241.06;;;14.23;71.52
34124;BME280;13153;52.316;21.166;2024-03-23T08:16:07;99248.09;;;14.27;71.18
34124;BME280;13153;52.316;21.166;2024-03-23T08:18:37;99238.41;;;14.26;71.27
34124;BME280;13153;52.316;21.166;2024-03-23T08:21:05;99234.03;;;14.20;71.44
34124;BME280;13153;52.316;21.166;2024-03-23T08:23:33;99232.19;;;14.31;71.37
34124;BME280;13153;52.316;21.166;2024-03-23T08:26:06;99233.06;;;14.35;71.11
34124;BME280;13153;52.316;21.166;2024-03-23T08:28:32;99230.38;;;14.42;70.74
34124;BME280;13153;52.316;21.166;2024-03-23T08:31:04;99228.50;;;14.53;70.93
34124;BME280;13153;52.316;21.166;2024-03-23T08:33:31;99230.22;;;14.58;70.98
34124;BME280;13153;52.316;21.166;2024-03-23T08:36:06;99216.09;;;14.62;70.72
34124;BME280;13153;52.316;21.166;2024-03-23T08:38:32;99220.47;;;14.66;70.52
34124;BME280;13153;52.316;21.166;2024-03-23T08:41:09;99219.72;;;14.48;70.41
34124;BME280;13153;52.316;21.166;2024-03-23T08:43:40;99207.38;;;14.47;70.46
34124;BME280;13153;52.316;21.166;2024-03-23T08:46:14;99203.13;;;14.25;70.55
34124;BME280;13153;52.316;21.166;2024-03-23T08:48:43;99196.91;;;14.34;70.55
34124;BME280;13153;52.316;21.166;2024-03-23T08:51:11;99196.84;;;14.38;70.56
34124;BME280;13153;52.316;21.166;2024-03-23T08:53:38;99184.38;;;14.56;70.66
34124;BME280;13153;52.316;21.166;2024-03-23T08:56:06;99181.63;;;14.68;70.26
34124;BME280;13153;52.316;21.166;2024-03-23T08:58:33;99193.81;;;14.85;70.30
34124;BME280;13153;52.316;21.166;2024-03-23T09:01:12;99181.16;;;15.09;69.48
34124;BME280;13153;52.316;21.166;2024-03-23T09:03:41;99173.63;;;15.49;69.10
34124;BME280;13153;52.316;21.166;2024-03-23T09:06:12;99172.31;;;15.82;67.77
34124;BME280;13153;52.316;21.166;2024-03-23T09:08:38;99159.44;;;16.16;66.38
34124;BME280;13153;52.316;21.166;2024-03-23T09:11:08;99156.56;;;16.28;65.56
34124;BME280;13153;52.316;21.166;2024-03-23T09:13:35;99154.19;;;16.64;65.54
34124;BME280;13153;52.316;21.166;2024-03-23T09:16:02;99152.13;;;16.79;63.38
34124;BME280;13153;52.316;21.166;2024-03-23T09:18:33;99154.13;;;16.68;62.65
34124;BME280;13153;52.316;21.166;2024-03-23T09:20:59;99155.00;;;16.69;62.97
34124;BME280;13153;52.316;21.166;2024-03-23T09:23:25;99147.94;;;16.68;62.51
34124;BME280;13153;52.316;21.166;2024-03-23T09:25:51;99134.81;;;16.57;62.63
34124;BME280;13153;52.316;21.166;2024-03-23T09:28:17;99136.69;;;16.52;62.74
34124;BME280;13153;52.316;21.166;2024-03-23T09:30:43;99123.31;;;16.57;62.63
34124;BME280;13153;52.316;21.166;2024-03-23T09:33:13;99125.25;;;16.48;62.79
34124;BME280;13153;52.316;21.166;2024-03-23T09:35:43;99125.88;;;16.63;62.79
34124;BME280;13153;52.316;21.166;2024-03-23T09:38:10;99126.09;;;16.50;62.59
34124;BME280;13153;52.316;21.166;2024-03-23T09:40:42;99119.28;;;16.34;62.39
34124;BME280;13153;52.316;21.166;2024-03-23T09:43:09;99104.88;;;16.49;62.06
34124;BME280;13153;52.316;21.166;2024-03-23T09:45:39;99107.41;;;16.55;62.01
34124;BME280;13153;52.316;21.166;2024-03-23T09:48:08;99096.72;;;16.60;61.91
34124;BME280;13153;52.316;21.166;2024-03-23T09:50:39;99098.59;;;16.53;61.72
34124;BME280;13153;52.316;21.166;2024-03-23T09:53:13;99095.19;;;16.46;61.76
34124;BME280;13153;52.316;21.166;2024-03-23T09:55:42;99093.69;;;16.32;62.24
34124;BME280;13153;52.316;21.166;2024-03-23T09:58:08;99088.03;;;16.50;62.54
34124;BME280;13153;52.316;21.166;2024-03-23T10:00:37;99085.41;;;16.48;61.78
34124;BME280;13153;52.316;21.166;2024-03-23T10:03:04;99077.28;;;16.58;62.31
34124;BME280;13153;52.316;21.166;2024-03-23T10:05:32;99079.78;;;16.68;62.41
34124;BME280;13153;52.316;21.166;2024-03-23T10:08:21;99076.28;;;16.63;61.79
34124;BME280;13153;52.316;21.166;2024-03-23T10:10:47;99067.59;;;17.00;60.99
34124;BME280;13153;52.316;21.166;2024-03-23T10:13:27;99058.75;;;17.39;60.91
34124;BME280;13153;52.316;21.166;2024-03-23T10:15:59;99050.19;;;17.67;59.48
34124;BME280;13153;52.316;21.166;2024-03-23T10:18:25;99032.56;;;17.61;58.57
34124;BME280;13153;52.316;21.166;2024-03-23T10:21:12;99025.13;;;17.77;58.75
34124;BME280;13153;52.316;21.166;2024-03-23T10:23:43;99022.88;;;17.94;58.27
34124;BME280;13153;52.316;21.166;2024-03-23T10:26:18;99011.50;;;17.89;57.22
34124;BME280;13153;52.316;21.166;2024-03-23T10:28:58;98995.63;;;17.86;57.19
34124;BME280;13153;52.316;21.166;2024-03-23T10:31:34;98990.78;;;18.00;56.67
34124;BME280;13153;52.316;21.166;2024-03-23T10:34:04;98991.69;;;17.99;56.22
34124;BME280;13153;52.316;21.166;2024-03-23T10:36:30;98974.63;;;18.08;55.68
34124;BME280;13153;52.316;21.166;2024-03-23T10:38:56;98963.47;;;17.94;55.76
34124;BME280;13153;52.316;21.166;2024-03-23T10:41:31;98962.97;;;18.12;56.02
34124;BME280;13153;52.316;21.166;2024-03-23T10:43:58;98947.44;;;18.29;55.93
34124;BME280;13153;52.316;21.166;2024-03-23T10:46:26;98955.13;;;18.40;54.85
34124;BME280;13153;52.316;21.166;2024-03-23T10:48:52;98939.84;;;18.46;54.83
34124;BME280;13153;52.316;21.166;2024-03-23T10:51:18;98940.84;;;18.42;53.90
34124;BME280;13153;52.316;21.166;2024-03-23T10:53:46;98940.81;;;18.44;54.08
34124;BME280;13153;52.316;21.166;2024-03-23T10:56:15;98942.72;;;18.39;54.31
34124;BME280;13153;52.316;21.166;2024-03-23T10:58:47;98942.09;;;18.29;54.38
34124;BME280;13153;52.316;21.166;2024-03-23T11:01:15;98936.94;;;18.23;53.80
34124;BME280;13153;52.316;21.166;2024-03-23T11:03:47;98923.94;;;18.12;53.58
34124;BME280;13153;52.316;21.166;2024-03-23T11:06:36;98917.22;;;17.98;54.04
34124;BME280;13153;52.316;21.166;2024-03-23T11:09:02;98900.50;;;17.93;54.33
34124;BME280;13153;52.316;21.166;2024-03-23T11:11:29;98908.88;;;17.79;54.60
34124;BME280;13153;52.316;21.166;2024-03-23T11:13:59;98897.09;;;17.89;54.98
34124;BME280;13153;52.316;21.166;2024-03-23T11:16:29;98901.88;;;18.07;55.19
34124;BME280;13153;52.316;21.166;2024-03-23T11:19:37;98894.34;;;18.23;53.89
34124;BME280;13153;52.316;21.166;2024-03-23T11:22:04;98887.88;;;18.32;53.59
34124;BME280;13153;52.316;21.166;2024-03-23T11:24:33;98886.53;;;18.48;53.47
34124;BME280;13153;52.316;21.166;2024-03-23T11:27:00;98888.38;;;18.46;53.04
34124;BME280;13153;52.316;21.166;2024-03-23T11:29:30;98871.38;;;18.48;52.54
34124;BME280;13153;52.316;21.166;2024-03-23T11:31:56;98877.25;;;18.61;53.45
34124;BME280;13153;52.316;21.166;2024-03-23T11:34:22;98871.47;;;18.47;53.14
34124;BME280;13153;52.316;21.166;2024-03-23T11:36:48;98872.59;;;18.38;53.24
34124;BME280;13153;52.316;21.166;2024-03-23T11:39:18;98871.69;;;18.39;52.68
34124;BME280;13153;52.316;21.166;2024-03-23T11:41:49;98867.94;;;18.46;52.74
34124;BME280;13153;52.316;21.166;2024-03-23T11:58:23;98843.91;;;18.48;52.06
34124;BME280;13153;52.316;21.166;2024-03-23T12:01:10;98825.81;;;18.58;52.09
34124;BME280;13153;52.316;21.166;2024-03-23T12:03:36;98823.66;;;18.72;52.11
34124;BME280;13153;52.316;21.166;2024-03-23T12:06:03;98815.59;;;18.73;51.84
34124;BME280;13153;52.316;21.166;2024-03-23T12:08:36;98813.66;;;18.78;51.42
34124;BME280;13153;52.316;21.166;2024-03-23T12:11:17;98806.50;;;18.80;51.75
34124;BME280;13153;52.316;21.166;2024-03-23T12:13:45;98813.66;;;18.78;52.39
34124;BME280;13153;52.316;21.166;2024-03-23T12:16:18;98803.16;;;18.74;52.34
34124;BME280;13153;52.316;21.166;2024-03-23T12:18:48;98794.38;;;18.70;51.36
34124;BME280;13153;52.316;21.166;2024-03-23T12:21:15;98798.84;;;18.70;50.43
34124;BME280;13153;52.316;21.166;2024-03-23T12:23:42;98790.59;;;18.77;50.20
34124;BME280;13153;52.316;21.166;2024-03-23T12:26:11;98780.63;;;18.84;49.89
34124;BME280;13153;52.316;21.166;2024-03-23T12:28:38;98777.97;;;18.84;49.51
34124;BME280;13153;52.316;21.166;2024-03-23T12:31:04;98774.31;;;18.87;49.76
34124;BME280;13153;52.316;21.166;2024-03-23T12:33:30;98769.97;;;18.84;49.10
34124;BME280;13153;52.316;21.166;2024-03-23T12:35:55;98768.22;;;18.83;49.19
34124;BME280;13153;52.316;21.166;2024-03-23T12:38:21;98760.03;;;18.89;49.36
34124;BME280;13153;52.316;21.166;2024-03-23T12:40:48;98752.75;;;18.94;48.97
34124;BME280;13153;52.316;21.166;2024-03-23T12:43:15;98741.78;;;19.03;48.38
34124;BME280;13153;52.316;21.166;2024-03-23T12:45:41;98748.66;;;19.09;47.01
34124;BME280;13153;52.316;21.166;2024-03-23T12:48:07;98745.94;;;19.10;46.82
34124;BME280;13153;52.316;21.166;2024-03-23T12:50:33;98743.16;;;19.13;46.87
34124;BME280;13153;52.316;21.166;2024-03-23T12:52:59;98736.09;;;19.12;47.06
34124;BME280;13153;52.316;21.166;2024-03-23T12:55:24;98727.53;;;19.04;47.50
34124;BME280;13153;52.316;21.166;2024-03-23T12:57:50;98725.06;;;18.98;47.27
34124;BME280;13153;52.316;21.166;2024-03-23T13:00:16;98720.81;;;18.93;47.13
34124;BME280;13153;52.316;21.166;2024-03-23T13:02:42;98718.19;;;18.91;46.60
34124;BME280;13153;52.316;21.166;2024-03-23T13:05:08;98704.00;;;18.91;46.59
34124;BME280;13153;52.316;21.166;2024-03-23T13:07:35;98712.97;;;18.88;46.49
34124;BME280;13153;52.316;21.166;2024-03-23T13:10:01;98711.34;;;18.84;46.63
34124;BME280;13153;52.316;21.166;2024-03-23T13:12:27;98697.28;;;18.79;46.98
34124;BME280;13153;52.316;21.166;2024-03-23T13:14:53;98696.69;;;18.71;47.24
34124;BME280;13153;52.316;21.166;2024-03-23T13:17:19;98698.66;;;18.64;46.83
34124;BME280;13153;52.316;21.166;2024-03-23T13:19:45;98683.72;;;18.59;46.67
34124;BME280;13153;52.316;21.166;2024-03-23T13:22:10;98678.34;;;18.62;47.02
34124;BME280;13153;52.316;21.166;2024-03-23T13:24:38;98678.22;;;18.65;47.27
34124;BME280;13153;52.316;21.166;2024-03-23T13:27:04;98671.16;;;18.64;47.08
34124;BME280;13153;52.316;21.166;2024-03-23T13:29:34;98676.38;;;18.67;46.99
34124;BME280;13153;52.316;21.166;2024-03-23T13:32:03;98674.50;;;18.70;46.92
34124;BME280;13153;52.316;21.166;2024-03-23T13:34:29;98664.66;;;18.72;46.94
34124;BME280;13153;52.316;21.166;2024-03-23T13:36:55;98654.88;;;18.73;47.43
34124;BME280;13153;52.316;21.166;2024-03-23T13:39:25;98649.53;;;18.73;47.77
34124;BME280;13153;52.316;21.166;2024-03-23T13:41:53;98632.88;;;18.66;47.70
34124;BME280;13153;52.316;21.166;2024-03-23T13:44:19;98623.09;;;18.67;47.14
34124;BME280;13153;52.316;21.166;2024-03-23T13:46:45;98618.69;;;18.66;47.00
34124;BME280;13153;52.316;21.166;2024-03-23T13:49:31;98620.50;;;18.65;47.18
34124;BME280;13153;52.316;21.166;2024-03-23T13:52:00;98612.50;;;18.65;46.93
34124;BME280;13153;52.316;21.166;2024-03-23T13:54:26;98608.03;;;18.66;46.95
34124;BME280;13153;52.316;21.166;2024-03-23T13:56:54;98608.88;;;18.68;47.10
34124;BME280;13153;52.316;21.166;2024-03-23T13:59:20;98607.00;;;18.70;46.84
34124;BME280;13153;52.316;21.166;2024-03-23T14:01:49;98598.09;;;18.71;46.98